Spokane, WA (99211)

4:37 PM PDT on July 26, 2016 (GMT -0700)
I-90 & Sprague Ave | | Change Station

Elev 1991 ft 47.65 °N, 117.31 °W | Updated 2 seconds ago

Scattered Clouds
Scattered Clouds
93.2 °F
Feels Like 89 °F
N
1.1
Wind Variable Wind from North
Gusts 1.1 mph

Today
High -- | Low -- °F
--% Chance of Precip.
Yesterday
High -- | Low -- °F
Precip. -- in
Pressure 29.94 in
Visibility 10.0 miles
Clouds Scattered Clouds 8000 ft
Heat Index 89 °F
Dew Point 37 °F
Humidity 14%
Rainfall 0.00 in
Snow Depth Not available.
5:19 AM 8:30 PM
Waning Gibbous, 50% visible
METAR KSFF 262253Z 09005KT 10SM SCT080 33/08 A2998 RMK AO2 SLP136 T03330083
Pressure 29.94 in
Visibility 10.0 miles
Clouds Scattered Clouds 8000 ft
Heat Index 89 °F
Dew Point 37 °F
Humidity 14%
Rainfall 0.00 in
Snow Depth Not available.
5:19 AM 8:30 PM
Waning Gibbous, 50% visible
METAR KSFF 262253Z 09005KT 10SM SCT080 33/08 A2998 RMK AO2 SLP136 T03330083

10-Day Weather Forecast

Almanac

Astronomy

Jul. 26, 2016 Rise Set
Actual Time
Civil Twilight
Nautical Twilight
Astronomical Twilight
Moon
Length of Visible Light
Length of Day
Tomorrow will be .
, % of the Moon is Illuminated

Today's Extremes

State Highs State Lows

Community

WunderPhotos

Upload Photos

1,927,729 photos uploaded!

WunderBlog® & News

Nearby

Air Quality

  Air Quality AQ Index Pollutant
Not available.

Snow Depth

Station Depth Elevation

Earthquake Activity

City Distance Mag. Time & Date
Minimum magnitude displayed is 2.5.

Coastal Water Temperatures

Place Temperature

Stations

Nearby Weather Stations

Station Location Temp. Windchill Dew Point Humidity Wind Precip. Elev Updated Type
                   

Watches & Warnings

There are currently no watches in effect.